Altamont, UT

12:23 AM MDT on July 05, 2015 (GMT -0600)
Cougar Ridge Ranch | | Change Station
CLOSE
Current Station
Personal Weather Station
Location: Duchesne, UT
Elevation: 6959 ft
Nearby Weather Stations

Elev 6959 ft 40.18 °N, 110.64 °W | Updated 10 seconds ago

Mostly Cloudy
Mostly Cloudy
66.4 °F
Feels Like 66.4 °F
N
4.0
Wind Variable Wind from SW
Gusts 5.0 mph

Today
High -- | Low -- °F
--% Chance of Precip.
Yesterday
High -- | Low -- °F
Precip. -- in
5:57 AM 8:55 PM
Waning Gibbous, 87% visible
Pressure 29.76 in
Visibility 10.0 miles
Clouds Clear
Dew Point 45 °F
Humidity 46%
Rainfall 0.00 in
Snow Depth Not available.
UV 0.0 out of 12
Pollen 5.70 out of 12
Air Quality Not available.
Flu Activity Not available.
METAR KVEL 050553Z AUTO 17005KT 10SM CLR 24/09 A3000 RMK AO2 SLP077 T02440094 10328 20222 51012

More Conditions Fewer Conditions

Pressure 29.76 in
Visibility 10.0 miles
Clouds Clear
Dew Point 45 °F
Humidity 46%
Rainfall 0.00 in
Snow Depth Not available.
UV 0.0 out of 12
Pollen 5.70 out of 12
Air Quality Not available.
Flu Activity Not available.
METAR KVEL 050553Z AUTO 17005KT 10SM CLR 24/09 A3000 RMK AO2 SLP077 T02440094 10328 20222 51012

More Conditions Fewer Conditions

Nowcast | as of 11:03 PM MDT on July 4, 2015

Scattered showers and thunderstorms will continue into the overnight hours...mainly across eastern and northern Utah...with more isolated activity across south central Utah. At 11pm...the strongest activity was over the San Rafael Swell...moving northward. Locally gusty winds and cloud to ground lightning are the primary threats from this activity.

×

10-Day Weather Forecast

×

Almanac

Astronomy

Jul. 05, 2015 Rise Set
Actual Time
Civil Twilight
Nautical Twilight
Astronomical Twilight
Moon
Length of Visible Light
Length of Day
Tomorrow will be .
, % of the Moon is Illuminated

Today's Extremes

State Highs State Lows

Community

WunderPhotos

Upload Photos

1,835,215 photos uploaded!

WunderBlogs® & News

Nearby

Air Quality

  Air Quality AQ Index Pollutant
Not available.

Snow Depth

Station Depth Elevation

Earthquake Activity

City Distance Mag. Time & Date
Minimum magnitude displayed is 2.5.

Coastal Water Temperatures

Place Temperature

Stations

Nearby Weather Stations

Station Location Temp. Windchill Dew Point Humidity Wind Precip. Elev Updated Type